Mendon, NY (14506)

4:12 AM EDT on July 30, 2016 (GMT -0400)
APRSWXNET | | Change Station

Elev 646 ft 42.99 °N, 77.54 °W | Updated 32 minutes ago

Clear
Clear
65 °F
Feels Like 65 °F
N
0
Wind Variable Wind from North
Gusts 3.0 mph

Today
High -- | Low -- °F
--% Chance of Precip.
Yesterday
High -- | Low -- °F
Precip. -- in
Pressure 30.01 in
Visibility 10.0 miles
Clouds Clear
Dew Point 60 °F
Humidity 85%
Rainfall in
Snow Depth Not available.
5:59 AM 8:32 PM
Waning Crescent, 15% visible
METAR KROC 300754Z 07009KT 10SM CLR 21/15 A3001 RMK AO2 SLP162 T02110150
Pressure 30.01 in
Visibility 10.0 miles
Clouds Clear
Dew Point 60 °F
Humidity 85%
Rainfall in
Snow Depth Not available.
5:59 AM 8:32 PM
Waning Crescent, 15% visible
METAR KROC 300754Z 07009KT 10SM CLR 21/15 A3001 RMK AO2 SLP162 T02110150

10-Day Weather Forecast

Almanac

Astronomy

Jul. 30, 2016 Rise Set
Actual Time
Civil Twilight
Nautical Twilight
Astronomical Twilight
Moon
Length of Visible Light
Length of Day
Tomorrow will be .
, % of the Moon is Illuminated

Today's Extremes

State Highs State Lows

Community

WunderPhotos

Upload Photos

1,928,508 photos uploaded!

WunderBlog® & News

Nearby

Air Quality

  Air Quality AQ Index Pollutant
Not available.

Snow Depth

Station Depth Elevation

Earthquake Activity

City Distance Mag. Time & Date
Minimum magnitude displayed is 2.5.

Coastal Water Temperatures

Place Temperature

Stations

Nearby Weather Stations

Station Location Temp. Windchill Dew Point Humidity Wind Precip. Elev Updated Type
                   

Watches & Warnings

There are currently no watches in effect.